createdAt,value
2019-02-07T00:01:38.545Z,-0.78
2019-02-07T00:04:07.791Z,-0.69
2019-02-07T00:06:36.923Z,-0.53
2019-02-07T00:09:09.588Z,-0.58
2019-02-07T00:11:38.821Z,-0.71
2019-02-07T00:14:08.272Z,-0.55
2019-02-07T00:16:37.390Z,-0.58
2019-02-07T00:19:06.536Z,-0.69
2019-02-07T00:21:35.782Z,-0.60
2019-02-07T00:24:05.402Z,-0.61
2019-02-07T00:26:34.614Z,-0.68
2019-02-07T00:29:04.002Z,-0.81
2019-02-07T00:31:33.097Z,-0.93
2019-02-07T00:34:02.272Z,-1.08
2019-02-07T00:36:31.466Z,-0.93
2019-02-07T00:39:00.572Z,-0.87
2019-02-07T00:41:29.805Z,-0.99
2019-02-07T00:43:59.256Z,-1.03
2019-02-07T00:46:28.475Z,-1.11
2019-02-07T00:48:57.620Z,-1.04
2019-02-07T00:51:26.866Z,-1.48
2019-02-07T00:53:56.225Z,-1.43
2019-02-07T00:56:25.698Z,-1.36
2019-02-07T00:58:54.877Z,-1.31
2019-02-07T01:01:23.982Z,-1.12
2019-02-07T01:03:53.029Z,-1.32
2019-02-07T01:06:22.165Z,-1.26
2019-02-07T01:08:51.392Z,-1.30
2019-02-07T01:11:20.744Z,-1.14
2019-02-07T01:13:49.863Z,-1.15
2019-02-07T01:16:19.009Z,-1.07
2019-02-07T01:18:48.182Z,-1.19
2019-02-07T01:21:17.275Z,-1.12
2019-02-07T01:23:46.454Z,-1.24
2019-02-07T01:26:15.575Z,-1.40
2019-02-07T01:28:44.903Z,-1.41
2019-02-07T01:31:13.998Z,-1.34
2019-02-07T01:33:43.099Z,-1.27
2019-02-07T01:36:12.271Z,-1.46
2019-02-07T01:38:41.435Z,-1.15
2019-02-07T01:41:10.593Z,-1.24
2019-02-07T01:43:40.223Z,-1.30
2019-02-07T01:46:09.484Z,-1.41
2019-02-07T01:48:38.653Z,-1.50
2019-02-07T01:51:07.771Z,-1.40
2019-02-07T01:53:36.888Z,-1.28
2019-02-07T01:56:06.236Z,-1.03
2019-02-07T01:58:36.075Z,-1.11
2019-02-07T02:01:05.387Z,-1.15
2019-02-07T02:03:34.515Z,-1.04
2019-02-07T02:06:03.628Z,-0.96
2019-02-07T02:08:32.746Z,-0.91
2019-02-07T02:11:01.870Z,-0.88
2019-02-07T02:13:31.668Z,-0.93
2019-02-07T02:16:00.808Z,-0.69
2019-02-07T02:18:29.946Z,-0.80
2019-02-07T02:20:59.042Z,-0.75
2019-02-07T02:23:28.166Z,-0.64
2019-02-07T02:25:57.274Z,-0.74
2019-02-07T02:28:27.225Z,-0.61
2019-02-07T02:30:56.555Z,-0.52
2019-02-07T02:33:25.700Z,-0.56
2019-02-07T02:35:54.867Z,-0.54
2019-02-07T02:38:23.971Z,-0.61
2019-02-07T02:40:53.098Z,-0.50
2019-02-07T02:43:23.961Z,-0.43
2019-02-07T02:45:53.122Z,-0.36
2019-02-07T02:48:22.551Z,-0.49
2019-02-07T02:50:51.698Z,-0.47
2019-02-07T02:53:20.798Z,-0.69
2019-02-07T02:55:50.543Z,-0.63
2019-02-07T02:58:20.024Z,-0.52
2019-02-07T03:01:15.271Z,-0.45
2019-02-07T03:03:51.146Z,-0.31
2019-02-07T03:06:48.718Z,-0.28
2019-02-07T03:09:52.197Z,-0.27
2019-02-07T03:12:43.783Z,-0.22
2019-02-07T03:15:26.114Z,-0.20
2019-02-07T03:18:12.969Z,-0.22
2019-02-07T03:20:52.633Z,-0.13
2019-02-07T03:23:50.363Z,-0.23
2019-02-07T03:26:35.360Z,-0.09
2019-02-07T03:29:28.388Z,-0.12
2019-02-07T03:32:11.055Z,-0.23
2019-02-07T03:34:47.564Z,0.02
2019-02-07T03:37:26.417Z,0.02
2019-02-07T03:40:26.682Z,0.13
2019-02-07T03:43:23.404Z,0.05
2019-02-07T03:46:10.173Z,-0.02
2019-02-07T03:48:46.042Z,-0.04
2019-02-07T03:51:26.179Z,0.02
2019-02-07T03:54:29.855Z,-0.10
2019-02-07T03:57:21.064Z,-0.15
2019-02-07T04:00:06.905Z,-0.05
2019-02-07T04:02:44.974Z,0.02
2019-02-07T04:05:45.571Z,-0.01
2019-02-07T04:08:39.765Z,0.03
2019-02-07T04:11:26.891Z,0.14
2019-02-07T04:14:27.200Z,0.12
2019-02-07T04:17:21.494Z,-0.08
2019-02-07T04:20:05.496Z,-0.05
2019-02-07T04:23:02.690Z,0.17
2019-02-07T04:25:50.154Z,0.13
2019-02-07T04:28:31.322Z,0.06
2019-02-07T04:31:18.484Z,0.20
2019-02-07T04:34:05.432Z,0.31
2019-02-07T04:36:44.129Z,0.45
2019-02-07T04:39:35.285Z,0.35
2019-02-07T04:42:32.524Z,0.38
2019-02-07T04:45:22.247Z,0.36
2019-02-07T04:48:39.823Z,0.29
2019-02-07T04:51:20.007Z,0.24
2019-02-07T04:54:05.677Z,0.19
2019-02-07T04:56:57.621Z,0.18
2019-02-07T04:59:42.630Z,0.32
2019-02-07T05:02:39.505Z,0.35
2019-02-07T05:05:34.472Z,0.30
2019-02-07T05:08:21.603Z,0.24
2019-02-07T05:11:12.608Z,0.26
2019-02-07T05:14:04.035Z,0.34
2019-02-07T05:16:55.249Z,0.33
2019-02-07T05:19:49.550Z,0.29
2019-02-07T05:22:28.071Z,0.31
2019-02-07T05:25:25.252Z,0.28
2019-02-07T05:28:03.110Z,0.37
2019-02-07T05:30:47.740Z,0.39
2019-02-07T05:33:35.109Z,0.45
2019-02-07T05:36:17.629Z,0.52
2019-02-07T05:39:24.412Z,0.57
2019-02-07T05:42:02.730Z,0.50
2019-02-07T05:44:59.991Z,0.62
2019-02-07T05:47:49.716Z,0.57
2019-02-07T05:50:45.892Z,0.60
2019-02-07T05:53:24.401Z,0.70
2019-02-07T05:56:11.442Z,0.70
2019-02-07T05:58:51.160Z,0.75
2019-02-07T06:01:41.508Z,0.67
2019-02-07T06:04:41.905Z,0.65
2019-02-07T06:07:29.987Z,0.72
2019-02-07T06:10:17.304Z,0.69
2019-02-07T06:13:04.371Z,0.73
2019-02-07T06:15:51.847Z,0.69
2019-02-07T06:18:58.387Z,0.79
2019-02-07T06:21:48.262Z,0.86
2019-02-07T06:24:38.479Z,0.86
2019-02-07T06:27:32.917Z,0.87
2019-02-07T06:30:19.845Z,0.91
2019-02-07T06:33:23.472Z,0.97
2019-02-07T06:36:20.501Z,0.94
2019-02-07T06:39:07.380Z,0.89
2019-02-07T06:41:54.205Z,0.84
2019-02-07T06:44:32.297Z,0.90
2019-02-07T06:47:23.290Z,0.94
2019-02-07T06:50:20.686Z,1.00
2019-02-07T06:53:19.435Z,1.09
2019-02-07T06:56:07.287Z,1.04
2019-02-07T06:59:00.817Z,1.01
2019-02-07T07:01:47.726Z,1.00
2019-02-07T07:04:35.817Z,0.97
2019-02-07T07:07:25.576Z,0.97
2019-02-07T07:10:13.649Z,0.98
2019-02-07T07:12:55.309Z,0.96
2019-02-07T07:15:40.393Z,1.05
2019-02-07T07:18:28.628Z,0.98
2019-02-07T07:21:29.460Z,1.06
2019-02-07T07:24:16.600Z,1.02
2019-02-07T07:26:59.608Z,1.11
2019-02-07T07:29:50.584Z,1.08
2019-02-07T07:32:44.182Z,1.14
2019-02-07T07:35:23.785Z,1.14
2019-02-07T07:38:10.700Z,1.12
2019-02-07T07:40:58.285Z,1.21
2019-02-07T07:43:46.510Z,1.24
2019-02-07T07:46:33.290Z,1.27
2019-02-07T07:49:24.604Z,1.22
2019-02-07T07:52:20.335Z,1.20
2019-02-07T07:54:54.607Z,1.26
2019-02-07T07:57:54.902Z,1.22
2019-02-07T08:00:42.361Z,1.20
2019-02-07T08:03:27.166Z,1.27
2019-02-07T08:06:18.595Z,1.31
2019-02-07T08:09:05.831Z,1.31
2019-02-07T08:12:04.908Z,1.25
2019-02-07T08:15:12.145Z,1.28
2019-02-07T08:18:03.152Z,1.34
2019-02-07T08:21:03.138Z,1.40
2019-02-07T08:23:43.050Z,1.43
2019-02-07T08:26:31.133Z,1.49
2019-02-07T08:29:17.883Z,1.50
2019-02-07T08:32:04.867Z,1.54
2019-02-07T08:34:48.856Z,1.55
2019-02-07T08:37:35.727Z,1.61
2019-02-07T08:40:20.519Z,1.69
2019-02-07T08:43:13.092Z,1.66
2019-02-07T08:46:07.278Z,1.74
2019-02-07T08:48:45.735Z,1.77
2019-02-07T08:51:52.011Z,1.84
2019-02-07T08:54:39.031Z,1.88
2019-02-07T08:57:42.196Z,1.89
2019-02-07T09:00:32.849Z,1.92
2019-02-07T09:03:26.829Z,1.94
2019-02-07T09:06:15.058Z,1.81
2019-02-07T09:09:18.418Z,1.83
2019-02-07T09:12:12.670Z,1.89
2019-02-07T09:15:07.205Z,1.94
2019-02-07T09:18:10.077Z,2.04
2019-02-07T09:20:53.671Z,2.15
2019-02-07T09:23:33.665Z,2.15
2019-02-07T09:26:21.781Z,2.27
2019-02-07T09:29:06.625Z,2.49
2019-02-07T09:32:03.593Z,2.52
2019-02-07T09:35:09.945Z,2.50
2019-02-07T09:37:58.345Z,2.58
2019-02-07T09:40:45.177Z,2.66
2019-02-07T09:43:33.706Z,2.86
2019-02-07T09:46:15.203Z,2.98
2019-02-07T09:48:57.067Z,3.07
2019-02-07T09:51:48.318Z,3.00
2019-02-07T09:54:35.010Z,3.04
2019-02-07T09:57:11.190Z,3.04
2019-02-07T09:59:59.300Z,3.01
2019-02-07T10:02:46.299Z,3.27
2019-02-07T10:05:33.666Z,3.41
2019-02-07T10:08:30.400Z,3.55
2019-02-07T10:11:10.251Z,3.48
2019-02-07T10:14:01.432Z,3.47
2019-02-07T10:16:55.252Z,3.29
2019-02-07T10:19:51.537Z,3.29
2019-02-07T10:22:38.678Z,3.19
2019-02-07T10:25:39.452Z,3.31
2019-02-07T10:28:26.710Z,3.38
2019-02-07T10:31:14.949Z,3.33
2019-02-07T10:34:18.826Z,3.19
2019-02-07T10:37:05.515Z,3.15
2019-02-07T10:39:47.870Z,3.21
2019-02-07T10:42:34.980Z,3.30
2019-02-07T10:45:22.863Z,3.22
2019-02-07T10:48:20.187Z,3.27
2019-02-07T10:51:17.571Z,3.27
2019-02-07T10:54:03.767Z,3.24
2019-02-07T10:56:58.008Z,3.17
2019-02-07T10:59:40.417Z,3.31
2019-02-07T11:02:32.498Z,3.26
2019-02-07T11:05:24.184Z,3.25
2019-02-07T11:08:03.330Z,3.27
2019-02-07T11:10:50.562Z,3.29
2019-02-07T11:13:37.326Z,3.21
2019-02-07T11:16:24.370Z,3.25
2019-02-07T11:19:21.439Z,3.08
2019-02-07T11:21:51.605Z,3.16
2019-02-07T11:24:48.717Z,3.18
2019-02-07T11:27:42.688Z,3.14
2019-02-07T11:30:46.284Z,3.21
2019-02-07T11:33:34.395Z,3.29
2019-02-07T11:36:26.463Z,3.33
2019-02-07T11:39:14.844Z,3.28
2019-02-07T11:42:02.859Z,3.43
2019-02-07T11:44:51.062Z,3.46
2019-02-07T11:47:38.228Z,3.51
2019-02-07T11:50:30.847Z,3.58
2019-02-07T11:53:22.139Z,3.46
2019-02-07T11:55:59.812Z,3.42
2019-02-07T11:58:59.850Z,3.34
2019-02-07T12:01:45.520Z,3.38
2019-02-07T12:04:41.402Z,3.61
2019-02-07T12:07:48.079Z,3.47
2019-02-07T12:10:35.872Z,3.53
2019-02-07T12:13:33.106Z,3.36
2019-02-07T12:16:21.237Z,3.37
2019-02-07T12:19:17.719Z,3.35
2019-02-07T12:21:59.231Z,3.33
2019-02-07T12:24:47.129Z,3.29
2019-02-07T12:27:35.256Z,3.26
2019-02-07T12:30:26.365Z,3.24
2019-02-07T12:33:15.633Z,3.25
2019-02-07T12:36:03.993Z,3.21
2019-02-07T12:38:49.489Z,3.21
2019-02-07T12:41:43.579Z,3.22
2019-02-07T12:44:50.201Z,3.20
2019-02-07T12:47:44.331Z,3.16
2019-02-07T12:50:35.598Z,3.20
2019-02-07T12:53:28.128Z,3.18
2019-02-07T12:56:15.155Z,3.20
2019-02-07T12:59:19.701Z,3.17
2019-02-07T13:02:23.527Z,3.22
2019-02-07T13:05:10.593Z,3.21
2019-02-07T13:07:49.340Z,3.20
2019-02-07T13:10:34.485Z,3.21
2019-02-07T13:13:23.197Z,3.20
2019-02-07T13:16:14.794Z,3.21
2019-02-07T13:19:14.910Z,3.24
2019-02-07T13:22:03.012Z,3.23
2019-02-07T13:24:49.934Z,3.31
2019-02-07T13:27:34.432Z,3.34
2019-02-07T13:30:27.257Z,3.32
2019-02-07T13:33:18.411Z,3.42
2019-02-07T13:36:22.074Z,3.41
2019-02-07T13:39:06.183Z,3.35
2019-02-07T13:41:43.198Z,3.36
2019-02-07T13:44:30.398Z,3.40
2019-02-07T13:47:11.063Z,3.40
2019-02-07T13:49:59.315Z,3.41
2019-02-07T13:53:00.132Z,3.46
2019-02-07T13:55:47.218Z,3.47
2019-02-07T13:58:28.378Z,3.45
2019-02-07T14:01:17.651Z,3.48
2019-02-07T14:04:22.559Z,3.43
2019-02-07T14:07:09.459Z,3.54
2019-02-07T14:09:55.427Z,3.53
2019-02-07T14:12:34.121Z,3.50
2019-02-07T14:15:15.633Z,3.64
2019-02-07T14:18:02.267Z,3.55
2019-02-07T14:20:53.278Z,3.64
2019-02-07T14:23:48.358Z,3.74
2019-02-07T14:26:39.371Z,3.74
2019-02-07T14:29:21.804Z,3.68
2019-02-07T14:32:08.798Z,3.67
2019-02-07T14:35:03.103Z,3.72
2019-02-07T14:37:57.555Z,3.66
2019-02-07T14:40:45.397Z,3.53
2019-02-07T14:43:32.289Z,3.59
2019-02-07T14:46:16.341Z,3.43
2019-02-07T14:48:45.648Z,3.34
2019-02-07T14:51:15.008Z,3.24
2019-02-07T14:53:44.200Z,3.18
2019-02-07T14:56:13.709Z,3.12
2019-02-07T14:58:43.116Z,3.12
2019-02-07T15:01:12.453Z,3.12
2019-02-07T15:03:41.662Z,3.18
2019-02-07T15:06:10.898Z,3.18
2019-02-07T15:08:40.140Z,3.18
2019-02-07T15:11:09.287Z,3.25
2019-02-07T15:13:38.437Z,3.29
2019-02-07T15:16:08.450Z,3.28
2019-02-07T15:18:37.670Z,3.27
2019-02-07T15:21:06.794Z,3.24
2019-02-07T15:23:35.926Z,3.18
2019-02-07T15:26:05.285Z,3.14
2019-02-07T15:28:34.413Z,3.06
2019-02-07T15:31:03.689Z,3.05
2019-02-07T15:33:32.974Z,3.00
2019-02-07T15:36:02.084Z,2.95
2019-02-07T15:38:31.190Z,2.90
2019-02-07T15:41:00.329Z,2.92
2019-02-07T15:43:29.564Z,2.86
2019-02-07T15:45:59.111Z,2.82
2019-02-07T15:48:28.218Z,2.82
2019-02-07T15:50:57.555Z,2.68
2019-02-07T15:53:26.781Z,2.65
2019-02-07T15:55:55.880Z,2.61
2019-02-07T15:58:38.244Z,2.62
2019-02-07T16:01:13.659Z,2.61
2019-02-07T16:03:52.802Z,2.65
2019-02-07T16:06:21.896Z,2.60
2019-02-07T16:08:51.085Z,2.58
2019-02-07T16:11:20.533Z,2.58
2019-02-07T16:13:49.745Z,2.55
2019-02-07T16:16:18.856Z,2.50
2019-02-07T16:18:48.023Z,2.62
2019-02-07T16:21:17.176Z,2.55
2019-02-07T16:23:46.387Z,2.53
2019-02-07T16:26:15.521Z,2.52
2019-02-07T16:28:44.711Z,2.44
2019-02-07T16:31:13.815Z,2.39
2019-02-07T16:33:43.167Z,2.31
2019-02-07T16:36:12.996Z,2.26
2019-02-07T16:38:42.125Z,2.24
2019-02-07T16:41:11.474Z,2.20
2019-02-07T16:43:40.586Z,2.21
2019-02-07T16:46:09.792Z,2.31
2019-02-07T16:48:39.164Z,2.29
2019-02-07T16:51:08.699Z,2.31
2019-02-07T16:53:37.957Z,2.28
2019-02-07T16:56:07.628Z,2.33
2019-02-07T16:58:36.757Z,2.31
2019-02-07T17:01:08.651Z,2.30
2019-02-07T17:03:38.259Z,2.27
2019-02-07T17:06:08.030Z,2.21
2019-02-07T17:08:37.412Z,2.24
2019-02-07T17:11:07.189Z,2.25
2019-02-07T17:13:36.657Z,2.24
2019-02-07T17:16:06.275Z,2.29
2019-02-07T17:18:35.459Z,2.32
2019-02-07T17:21:11.524Z,2.34
2019-02-07T17:23:35.557Z,2.36
2019-02-07T17:26:05.122Z,2.32
2019-02-07T17:28:34.330Z,2.32
2019-02-07T17:31:03.452Z,2.24
2019-02-07T17:33:32.608Z,2.24
2019-02-07T17:36:01.740Z,2.30
2019-02-07T17:38:30.850Z,2.25
2019-02-07T17:41:00.089Z,2.23
2019-02-07T17:43:29.243Z,2.22
2019-02-07T17:45:58.397Z,2.22
2019-02-07T17:48:28.536Z,2.23
2019-02-07T17:50:57.727Z,2.24
2019-02-07T17:53:26.869Z,2.17
2019-02-07T17:55:56.097Z,2.19
2019-02-07T17:58:25.333Z,2.35
2019-02-07T18:01:13.617Z,2.31
2019-02-07T18:03:42.761Z,2.31
2019-02-07T18:06:12.496Z,2.34
2019-02-07T18:08:41.719Z,2.45
2019-02-07T18:11:10.954Z,2.45
2019-02-07T18:13:43.996Z,2.43
2019-02-07T18:16:13.435Z,2.46
2019-02-07T18:18:42.560Z,2.49
2019-02-07T18:21:12.127Z,2.58
2019-02-07T18:23:42.496Z,2.44
2019-02-07T18:26:11.637Z,2.35
2019-02-07T18:28:40.932Z,2.58
2019-02-07T18:31:10.038Z,2.49
2019-02-07T18:33:41.041Z,2.47
2019-02-07T18:36:10.416Z,2.44
2019-02-07T18:38:39.676Z,2.39
2019-02-07T18:41:08.790Z,2.37
2019-02-07T18:43:37.962Z,2.39
2019-02-07T18:46:07.125Z,2.37
2019-02-07T18:48:36.262Z,2.39
2019-02-07T18:51:05.630Z,2.41
2019-02-07T18:53:34.860Z,2.42
2019-02-07T18:56:04.511Z,2.45
2019-02-07T18:58:33.609Z,2.38
2019-02-07T19:01:02.737Z,2.43
2019-02-07T19:03:31.895Z,2.46
2019-02-07T19:06:01.011Z,2.48
2019-02-07T19:08:30.158Z,2.55
2019-02-07T19:10:59.563Z,2.46
2019-02-07T19:13:28.708Z,2.38
2019-02-07T19:16:04.666Z,2.35
2019-02-07T19:18:34.137Z,2.47
2019-02-07T19:21:03.691Z,2.49
2019-02-07T19:23:33.017Z,2.43
2019-02-07T19:26:02.396Z,2.44
2019-02-07T19:28:32.430Z,2.45
2019-02-07T19:31:01.805Z,2.77
2019-02-07T19:33:31.249Z,2.67
2019-02-07T19:36:01.119Z,2.66
2019-02-07T19:38:32.859Z,2.56
2019-02-07T19:41:01.545Z,2.62
2019-02-07T19:43:30.909Z,2.62
2019-02-07T19:46:00.156Z,2.56
2019-02-07T19:48:29.415Z,2.69
2019-02-07T19:50:59.016Z,2.65
2019-02-07T19:53:28.218Z,2.64
2019-02-07T19:55:57.739Z,2.54
2019-02-07T19:58:27.026Z,2.60
2019-02-07T20:00:56.195Z,2.80
2019-02-07T20:03:28.236Z,2.76
2019-02-07T20:05:57.966Z,2.79
2019-02-07T20:08:27.755Z,2.84
2019-02-07T20:10:57.191Z,2.77
2019-02-07T20:13:26.369Z,2.69
2019-02-07T20:15:55.660Z,2.63
2019-02-07T20:18:25.069Z,2.71
2019-02-07T20:20:54.322Z,2.64
2019-02-07T20:23:23.850Z,2.64
2019-02-07T20:25:53.266Z,2.56
2019-02-07T20:28:22.714Z,2.59
2019-02-07T20:30:52.157Z,2.53
2019-02-07T20:33:21.462Z,2.59
2019-02-07T20:35:50.669Z,2.86
2019-02-07T20:38:19.916Z,2.74
2019-02-07T20:40:49.107Z,3.32
2019-02-07T20:43:18.322Z,2.90
2019-02-07T20:45:47.715Z,2.76
2019-02-07T20:48:17.044Z,2.72
2019-02-07T20:50:46.271Z,2.70
2019-02-07T20:53:17.714Z,2.66
2019-02-07T20:55:47.674Z,2.64
2019-02-07T20:58:17.037Z,2.75
2019-02-07T21:00:46.246Z,3.21
2019-02-07T21:03:15.371Z,2.98
2019-02-07T21:05:44.513Z,2.90
2019-02-07T21:08:13.910Z,3.04
2019-02-07T21:10:46.640Z,2.97
2019-02-07T21:13:15.712Z,3.11
2019-02-07T21:15:44.848Z,3.05
2019-02-07T21:18:14.045Z,3.12
2019-02-07T21:20:43.281Z,3.06
2019-02-07T21:23:12.802Z,3.09
2019-02-07T21:25:45.120Z,3.07
2019-02-07T21:28:14.598Z,3.05
2019-02-07T21:30:44.294Z,3.24
2019-02-07T21:33:13.541Z,3.25
2019-02-07T21:35:42.642Z,3.09
2019-02-07T21:38:11.790Z,3.10
2019-02-07T21:40:44.180Z,3.06
2019-02-07T21:43:13.682Z,3.11
2019-02-07T21:45:42.906Z,3.10
2019-02-07T21:48:12.279Z,3.11
2019-02-07T21:50:42.986Z,3.22
2019-02-07T21:53:12.194Z,3.29
2019-02-07T21:55:41.452Z,3.17
2019-02-07T21:58:12.139Z,3.13
2019-02-07T22:00:43.564Z,3.17
2019-02-07T22:03:14.227Z,3.36
2019-02-07T22:05:43.854Z,3.33
2019-02-07T22:08:13.307Z,3.38
2019-02-07T22:10:43.932Z,3.37
2019-02-07T22:13:13.695Z,3.28
2019-02-07T22:15:42.814Z,3.07
2019-02-07T22:18:12.172Z,3.29
2019-02-07T22:20:41.275Z,3.38
2019-02-07T22:23:10.455Z,3.19
2019-02-07T22:25:39.694Z,3.53
2019-02-07T22:28:09.927Z,3.44
2019-02-07T22:30:39.230Z,3.36
2019-02-07T22:33:08.726Z,3.24
2019-02-07T22:35:37.875Z,3.29
2019-02-07T22:38:08.545Z,3.53
2019-02-07T22:40:37.766Z,3.45
2019-02-07T22:43:07.287Z,3.49
2019-02-07T22:45:36.413Z,3.55
2019-02-07T22:48:06.357Z,3.61
2019-02-07T22:50:35.793Z,3.69
2019-02-07T22:53:05.234Z,3.48
2019-02-07T22:55:34.350Z,3.55
2019-02-07T22:58:04.151Z,3.56
2019-02-07T23:01:14.181Z,3.76
2019-02-07T23:03:48.847Z,3.60
2019-02-07T23:06:18.000Z,3.48
2019-02-07T23:08:47.087Z,3.84
2019-02-07T23:11:16.347Z,3.70
2019-02-07T23:13:45.454Z,3.98
2019-02-07T23:16:15.923Z,3.75
2019-02-07T23:18:45.502Z,3.58
2019-02-07T23:21:14.655Z,3.67
2019-02-07T23:23:43.893Z,3.67
2019-02-07T23:26:13.331Z,3.68
2019-02-07T23:28:42.453Z,3.57
2019-02-07T23:31:11.756Z,3.71
2019-02-07T23:33:41.101Z,3.63
2019-02-07T23:36:10.801Z,3.65
2019-02-07T23:38:39.941Z,3.77
2019-02-07T23:41:10.267Z,3.76
2019-02-07T23:43:45.890Z,3.62
2019-02-07T23:46:11.340Z,3.55
2019-02-07T23:48:40.474Z,3.60
2019-02-07T23:51:09.628Z,3.58
2019-02-07T23:53:38.796Z,3.70
2019-02-07T23:56:08.200Z,3.62
2019-02-07T23:58:37.290Z,3.81
